sensor_id;sensor_type;location;lat;lon;timestamp;pressure;altitude;pressure_sealevel;temperature;humidity
50632;BME280;49583;45.590;-122.498;2022-07-26T00:04:37;100449.22;;;38.16;26.12
50632;BME280;49583;45.590;-122.498;2022-07-26T00:07:05;100449.21;;;38.16;26.17
50632;BME280;49583;45.590;-122.498;2022-07-26T00:10:00;100447.48;;;38.16;25.33
50632;BME280;49583;45.590;-122.498;2022-07-26T00:12:42;100442.78;;;38.15;25.53
50632;BME280;49583;45.590;-122.498;2022-07-26T00:21:01;100439.78;;;38.18;25.26
50632;BME280;49583;45.590;-122.498;2022-07-26T00:26:21;100428.20;;;38.16;24.86
50632;BME280;49583;45.590;-122.498;2022-07-26T00:29:05;100430.45;;;38.16;24.45
50632;BME280;49583;45.590;-122.498;2022-07-26T00:40:43;100423.91;;;38.06;24.13
50632;BME280;49583;45.590;-122.498;2022-07-26T00:43:25;100421.77;;;38.05;24.17
50632;BME280;49583;45.590;-122.498;2022-07-26T00:49:30;100419.54;;;38.02;24.61
50632;BME280;49583;45.590;-122.498;2022-07-26T00:52:08;100418.08;;;38.00;24.49
50632;BME280;49583;45.590;-122.498;2022-07-26T00:54:47;100415.55;;;37.99;24.52
50632;BME280;49583;45.590;-122.498;2022-07-26T00:57:46;100415.38;;;37.98;24.50
50632;BME280;49583;45.590;-122.498;2022-07-26T01:00:28;100408.72;;;37.95;24.48
50632;BME280;49583;45.590;-122.498;2022-07-26T01:03:20;100404.16;;;37.93;24.54
50632;BME280;49583;45.590;-122.498;2022-07-26T01:05:52;100405.91;;;37.92;24.42
50632;BME280;49583;45.590;-122.498;2022-07-26T01:11:21;100399.59;;;37.89;24.54
50632;BME280;49583;45.590;-122.498;2022-07-26T01:14:04;100397.33;;;37.88;24.68
50632;BME280;49583;45.590;-122.498;2022-07-26T01:16:55;100396.48;;;37.86;24.67
50632;BME280;49583;45.590;-122.498;2022-07-26T01:19:38;100395.42;;;37.83;24.43
50632;BME280;49583;45.590;-122.498;2022-07-26T01:22:06;100392.23;;;37.80;24.80
50632;BME280;49583;45.590;-122.498;2022-07-26T01:25:36;100392.05;;;37.77;25.14
50632;BME280;49583;45.590;-122.498;2022-07-26T01:28:20;100386.45;;;37.73;25.52
50632;BME280;49583;45.590;-122.498;2022-07-26T01:36:14;100376.29;;;37.62;25.84
50632;BME280;49583;45.590;-122.498;2022-07-26T01:38:53;100380.20;;;37.59;25.84
50632;BME280;49583;45.590;-122.498;2022-07-26T01:41:57;100373.35;;;37.54;25.76
50632;BME280;49583;45.590;-122.498;2022-07-26T01:44:20;100372.67;;;37.49;25.72
50632;BME280;49583;45.590;-122.498;2022-07-26T01:46:58;100373.09;;;37.44;25.52
50632;BME280;49583;45.590;-122.498;2022-07-26T01:49:21;100371.09;;;37.39;25.58
50632;BME280;49583;45.590;-122.498;2022-07-26T01:52:08;100368.85;;;37.32;25.72
50632;BME280;49583;45.590;-122.498;2022-07-26T01:54:47;100368.60;;;37.25;25.75
50632;BME280;49583;45.590;-122.498;2022-07-26T02:03:55;100359.91;;;37.06;26.27
50632;BME280;49583;45.590;-122.498;2022-07-26T02:06:56;100358.78;;;36.98;26.28
50632;BME280;49583;45.590;-122.498;2022-07-26T02:09:30;100357.96;;;36.91;26.35
50632;BME280;49583;45.590;-122.498;2022-07-26T02:15:05;100358.80;;;36.75;26.04
50632;BME280;49583;45.590;-122.498;2022-07-26T02:18:03;100356.93;;;36.68;26.54
50632;BME280;49583;45.590;-122.498;2022-07-26T02:20:30;100354.09;;;36.60;26.50
50632;BME280;49583;45.590;-122.498;2022-07-26T02:22:41;100354.95;;;36.54;26.54
50632;BME280;49583;45.590;-122.498;2022-07-26T02:25:14;100355.23;;;36.50;26.53
50632;BME280;49583;45.590;-122.498;2022-07-26T02:30:49;100355.31;;;36.38;26.61
50632;BME280;49583;45.590;-122.498;2022-07-26T02:33:41;100354.56;;;36.31;26.70
50632;BME280;49583;45.590;-122.498;2022-07-26T02:36:38;100356.16;;;36.22;27.02
50632;BME280;49583;45.590;-122.498;2022-07-26T02:44:29;100351.91;;;36.06;27.05
50632;BME280;49583;45.590;-122.498;2022-07-26T02:50:03;100344.86;;;35.94;27.05
50632;BME280;49583;45.590;-122.498;2022-07-26T02:52:25;100347.65;;;35.86;27.27
50632;BME280;49583;45.590;-122.498;2022-07-26T02:58:12;100345.16;;;35.69;27.56
50632;BME280;49583;45.590;-122.498;2022-07-26T03:00:35;100347.49;;;35.62;27.56
50632;BME280;49583;45.590;-122.498;2022-07-26T03:03:02;100352.70;;;35.57;27.62
50632;BME280;49583;45.590;-122.498;2022-07-26T03:05:44;100349.59;;;35.51;27.91
50632;BME280;49583;45.590;-122.498;2022-07-26T03:20:19;100352.16;;;34.95;29.38
50632;BME280;49583;45.590;-122.498;2022-07-26T03:22:47;100351.63;;;34.80;29.76
50632;BME280;49583;45.590;-122.498;2022-07-26T03:25:47;100356.52;;;34.65;29.94
50632;BME280;49583;45.590;-122.498;2022-07-26T03:30:59;100354.29;;;34.34;30.15
50632;BME280;49583;45.590;-122.498;2022-07-26T03:33:15;100354.03;;;34.22;30.21
50632;BME280;49583;45.590;-122.498;2022-07-26T03:36:01;100359.41;;;34.09;30.40
50632;BME280;49583;45.590;-122.498;2022-07-26T03:38:53;100354.06;;;33.94;30.30
50632;BME280;49583;45.590;-122.498;2022-07-26T03:41:22;100362.67;;;33.83;30.51
50632;BME280;49583;45.590;-122.498;2022-07-26T03:47:34;100363.48;;;33.56;30.64
50632;BME280;49583;45.590;-122.498;2022-07-26T03:50:22;100368.05;;;33.43;30.84
50632;BME280;49583;45.590;-122.498;2022-07-26T03:52:49;100370.45;;;33.30;30.87
50632;BME280;49583;45.590;-122.498;2022-07-26T03:55:41;100369.67;;;33.19;30.93
50632;BME280;49583;45.590;-122.498;2022-07-26T03:58:31;100375.84;;;33.10;30.93
50632;BME280;49583;45.590;-122.498;2022-07-26T04:01:15;100375.10;;;33.02;30.95
50632;BME280;49583;45.590;-122.498;2022-07-26T04:06:52;100382.08;;;32.86;30.99
50632;BME280;49583;45.590;-122.498;2022-07-26T04:09:32;100382.98;;;32.78;31.09
50632;BME280;49583;45.590;-122.498;2022-07-26T04:14:50;100392.07;;;32.64;31.34
50632;BME280;49583;45.590;-122.498;2022-07-26T04:17:16;100395.70;;;32.57;31.38
50632;BME280;49583;45.590;-122.498;2022-07-26T04:19:26;100397.98;;;32.50;31.49
50632;BME280;49583;45.590;-122.498;2022-07-26T04:22:15;100397.11;;;32.43;31.71
50632;BME280;49583;45.590;-122.498;2022-07-26T04:28:30;100402.91;;;32.24;31.99
50632;BME280;49583;45.590;-122.498;2022-07-26T04:35:58;100416.48;;;32.01;32.16
50632;BME280;49583;45.590;-122.498;2022-07-26T04:44:42;100417.52;;;31.71;32.36
50632;BME280;49583;45.590;-122.498;2022-07-26T04:50:27;100422.45;;;31.54;32.56
50632;BME280;49583;45.590;-122.498;2022-07-26T04:53:32;100426.33;;;31.43;32.57
50632;BME280;49583;45.590;-122.498;2022-07-26T04:55:46;100427.86;;;31.34;32.70
50632;BME280;49583;45.590;-122.498;2022-07-26T04:58:10;100429.11;;;31.27;32.70
50632;BME280;49583;45.590;-122.498;2022-07-26T05:00:45;100422.95;;;31.17;33.05
50632;BME280;49583;45.590;-122.498;2022-07-26T05:03:36;100425.21;;;31.07;33.37
50632;BME280;49583;45.590;-122.498;2022-07-26T05:08:40;100424.90;;;30.90;33.58
50632;BME280;49583;45.590;-122.498;2022-07-26T05:11:47;100428.49;;;30.80;33.99
50632;BME280;49583;45.590;-122.498;2022-07-26T05:14:25;100430.52;;;30.73;33.82
50632;BME280;49583;45.590;-122.498;2022-07-26T05:22:46;100440.70;;;30.48;34.38
50632;BME280;49583;45.590;-122.498;2022-07-26T05:27:17;100438.27;;;30.33;35.02
50632;BME280;49583;45.590;-122.498;2022-07-26T05:29:51;100440.36;;;30.24;34.80
50632;BME280;49583;45.590;-122.498;2022-07-26T05:34:59;100440.58;;;30.08;35.21
50632;BME280;49583;45.590;-122.498;2022-07-26T05:37:21;100446.37;;;30.01;35.40
50632;BME280;49583;45.590;-122.498;2022-07-26T05:43:38;100445.55;;;29.83;35.69
50632;BME280;49583;45.590;-122.498;2022-07-26T05:46:09;100445.20;;;29.75;35.88
50632;BME280;49583;45.590;-122.498;2022-07-26T05:48:53;100445.42;;;29.66;35.83
50632;BME280;49583;45.590;-122.498;2022-07-26T05:51:17;100446.02;;;29.58;36.18
50632;BME280;49583;45.590;-122.498;2022-07-26T05:53:29;100443.24;;;29.49;36.10
50632;BME280;49583;45.590;-122.498;2022-07-26T05:55:54;100448.38;;;29.45;36.41
50632;BME280;49583;45.590;-122.498;2022-07-26T05:58:27;100447.01;;;29.37;36.57
50632;BME280;49583;45.590;-122.498;2022-07-26T06:00:40;100446.37;;;29.30;36.90
50632;BME280;49583;45.590;-122.498;2022-07-26T06:03:03;100452.28;;;29.23;36.99
50632;BME280;49583;45.590;-122.498;2022-07-26T06:05:34;100450.89;;;29.14;37.21
50632;BME280;49583;45.590;-122.498;2022-07-26T06:07:44;100452.18;;;29.07;37.38
50632;BME280;49583;45.590;-122.498;2022-07-26T06:10:27;100455.56;;;28.99;37.54
50632;BME280;49583;45.590;-122.498;2022-07-26T06:16:16;100459.15;;;28.85;37.94
50632;BME280;49583;45.590;-122.498;2022-07-26T06:18:34;100457.17;;;28.75;37.94
50632;BME280;49583;45.590;-122.498;2022-07-26T06:23:55;100460.35;;;28.57;38.43
50632;BME280;49583;45.590;-122.498;2022-07-26T06:26:23;100463.12;;;28.48;38.75
50632;BME280;49583;45.590;-122.498;2022-07-26T06:28:33;100462.17;;;28.39;38.86
50632;BME280;49583;45.590;-122.498;2022-07-26T06:31:40;100464.11;;;28.32;38.87
50632;BME280;49583;45.590;-122.498;2022-07-26T06:33:56;100463.45;;;28.24;39.09
50632;BME280;49583;45.590;-122.498;2022-07-26T06:36:19;100462.27;;;28.15;39.21
50632;BME280;49583;45.590;-122.498;2022-07-26T06:39:02;100465.96;;;28.11;39.25
50632;BME280;49583;45.590;-122.498;2022-07-26T06:41:24;100468.05;;;28.05;39.39
50632;BME280;49583;45.590;-122.498;2022-07-26T06:49:34;100470.98;;;27.80;40.07
50632;BME280;49583;45.590;-122.498;2022-07-26T06:54:24;100471.96;;;27.65;40.34
50632;BME280;49583;45.590;-122.498;2022-07-26T06:57:10;100473.12;;;27.55;40.44
50632;BME280;49583;45.590;-122.498;2022-07-26T06:59:40;100472.32;;;27.45;40.80
50632;BME280;49583;45.590;-122.498;2022-07-26T07:01:54;100474.57;;;27.41;41.08
50632;BME280;49583;45.590;-122.498;2022-07-26T07:04:04;100482.64;;;27.35;41.05
50632;BME280;49583;45.590;-122.498;2022-07-26T07:06:14;100478.46;;;27.31;41.16
50632;BME280;49583;45.590;-122.498;2022-07-26T07:08:52;100480.58;;;27.25;41.23
50632;BME280;49583;45.590;-122.498;2022-07-26T07:11:09;100478.80;;;27.17;41.36
50632;BME280;49583;45.590;-122.498;2022-07-26T07:13:57;100482.58;;;27.11;41.52
50632;BME280;49583;45.590;-122.498;2022-07-26T07:16:13;100486.31;;;27.04;41.29
50632;BME280;49583;45.590;-122.498;2022-07-26T07:18:26;100490.06;;;26.98;41.54
50632;BME280;49583;45.590;-122.498;2022-07-26T07:21:06;100491.28;;;26.93;41.83
50632;BME280;49583;45.590;-122.498;2022-07-26T07:26:16;100492.55;;;26.81;42.12
50632;BME280;49583;45.590;-122.498;2022-07-26T07:28:53;100493.58;;;26.76;42.37
50632;BME280;49583;45.590;-122.498;2022-07-26T07:34:12;100499.61;;;26.64;42.46
50632;BME280;49583;45.590;-122.498;2022-07-26T07:36:43;100500.10;;;26.59;42.59
50632;BME280;49583;45.590;-122.498;2022-07-26T07:39:01;100496.80;;;26.53;42.74
50632;BME280;49583;45.590;-122.498;2022-07-26T07:41:32;100497.55;;;26.49;43.02
50632;BME280;49583;45.590;-122.498;2022-07-26T07:44:24;100494.57;;;26.44;43.11
50632;BME280;49583;45.590;-122.498;2022-07-26T07:47:03;100500.05;;;26.38;43.22
50632;BME280;49583;45.590;-122.498;2022-07-26T07:49:34;100502.54;;;26.31;43.45
50632;BME280;49583;45.590;-122.498;2022-07-26T07:55:17;100502.29;;;26.15;43.75
50632;BME280;49583;45.590;-122.498;2022-07-26T07:57:51;100500.50;;;26.07;44.18
50632;BME280;49583;45.590;-122.498;2022-07-26T08:00:10;100502.20;;;26.00;44.09
50632;BME280;49583;45.590;-122.498;2022-07-26T08:02:24;100506.35;;;25.93;44.18
50632;BME280;49583;45.590;-122.498;2022-07-26T08:05:16;100505.82;;;25.85;44.46
50632;BME280;49583;45.590;-122.498;2022-07-26T08:07:46;100510.88;;;25.74;44.66
50632;BME280;49583;45.590;-122.498;2022-07-26T08:10:23;100512.77;;;25.65;45.06
50632;BME280;49583;45.590;-122.498;2022-07-26T08:12:59;100515.89;;;25.56;45.21
50632;BME280;49583;45.590;-122.498;2022-07-26T08:21:09;100518.84;;;25.29;45.95
50632;BME280;49583;45.590;-122.498;2022-07-26T08:26:13;100518.98;;;25.14;46.25
50632;BME280;49583;45.590;-122.498;2022-07-26T08:28:33;100521.39;;;25.07;46.50
50632;BME280;49583;45.590;-122.498;2022-07-26T08:31:52;100524.90;;;25.00;46.76
50632;BME280;49583;45.590;-122.498;2022-07-26T08:37:27;100533.15;;;24.88;47.32
50632;BME280;49583;45.590;-122.498;2022-07-26T08:43:43;100533.70;;;24.78;47.61
50632;BME280;49583;45.590;-122.498;2022-07-26T08:49:01;100533.65;;;24.65;47.97
50632;BME280;49583;45.590;-122.498;2022-07-26T08:54:50;100533.09;;;24.51;48.32
50632;BME280;49583;45.590;-122.498;2022-07-26T08:57:31;100531.73;;;24.43;48.57
50632;BME280;49583;45.590;-122.498;2022-07-26T09:00:31;100534.38;;;24.37;48.64
50632;BME280;49583;45.590;-122.498;2022-07-26T09:02:50;100531.58;;;24.28;48.85
50632;BME280;49583;45.590;-122.498;2022-07-26T09:08:30;100537.54;;;24.12;49.43
50632;BME280;49583;45.590;-122.498;2022-07-26T09:11:30;100538.98;;;24.06;49.43
50632;BME280;49583;45.590;-122.498;2022-07-26T09:13:12;100535.29;;;23.99;49.62
50632;BME280;49583;45.590;-122.498;2022-07-26T09:16:10;100533.04;;;23.93;49.86
50632;BME280;49583;45.590;-122.498;2022-07-26T09:18:58;100535.32;;;23.88;50.04
50632;BME280;49583;45.590;-122.498;2022-07-26T09:21:53;100532.90;;;23.82;50.31
50632;BME280;49583;45.590;-122.498;2022-07-26T09:24:28;100533.29;;;23.77;50.37
50632;BME280;49583;45.590;-122.498;2022-07-26T09:29:43;100538.42;;;23.68;50.91
50632;BME280;49583;45.590;-122.498;2022-07-26T09:32:17;100540.16;;;23.64;51.07
50632;BME280;49583;45.590;-122.498;2022-07-26T09:34:40;100541.32;;;23.58;51.19
50632;BME280;49583;45.590;-122.498;2022-07-26T09:40:01;100543.67;;;23.51;51.74
50632;BME280;49583;45.590;-122.498;2022-07-26T09:42:24;100543.87;;;23.46;51.61
50632;BME280;49583;45.590;-122.498;2022-07-26T09:47:44;100544.45;;;23.35;51.84
50632;BME280;49583;45.590;-122.498;2022-07-26T09:50:20;100547.16;;;23.31;52.26
50632;BME280;49583;45.590;-122.498;2022-07-26T09:52:55;100549.80;;;23.25;52.26
50632;BME280;49583;45.590;-122.498;2022-07-26T09:55:17;100553.48;;;23.21;52.72
50632;BME280;49583;45.590;-122.498;2022-07-26T09:57:36;100556.88;;;23.17;53.12
50632;BME280;49583;45.590;-122.498;2022-07-26T09:59:48;100558.27;;;23.13;53.09
50632;BME280;49583;45.590;-122.498;2022-07-26T10:02:07;100556.95;;;23.10;53.26
50632;BME280;49583;45.590;-122.498;2022-07-26T10:04:51;100557.38;;;23.04;53.36
50632;BME280;49583;45.590;-122.498;2022-07-26T10:07:34;100558.86;;;22.97;53.23
50632;BME280;49583;45.590;-122.498;2022-07-26T10:10:28;100566.20;;;22.92;53.44
50632;BME280;49583;45.590;-122.498;2022-07-26T10:16:33;100573.64;;;22.82;53.71
50632;BME280;49583;45.590;-122.498;2022-07-26T10:26:08;100577.92;;;22.57;53.96
50632;BME280;49583;45.590;-122.498;2022-07-26T10:38:03;100571.32;;;22.38;54.84
50632;BME280;49583;45.590;-122.498;2022-07-26T10:40:37;100575.71;;;22.35;54.94
50632;BME280;49583;45.590;-122.498;2022-07-26T10:42:51;100574.98;;;22.32;55.27
50632;BME280;49583;45.590;-122.498;2022-07-26T10:51:35;100581.79;;;22.20;55.70
50632;BME280;49583;45.590;-122.498;2022-07-26T10:54:22;100583.33;;;22.16;55.58
50632;BME280;49583;45.590;-122.498;2022-07-26T10:57:10;100579.52;;;22.09;55.60
50632;BME280;49583;45.590;-122.498;2022-07-26T11:05:16;100582.02;;;21.93;55.92
50632;BME280;49583;45.590;-122.498;2022-07-26T11:07:27;100581.34;;;21.89;55.95
50632;BME280;49583;45.590;-122.498;2022-07-26T11:09:53;100584.24;;;21.84;56.06
50632;BME280;49583;45.590;-122.498;2022-07-26T11:12:39;100586.52;;;21.79;56.20
50632;BME280;49583;45.590;-122.498;2022-07-26T11:14:52;100588.50;;;21.74;56.42
50632;BME280;49583;45.590;-122.498;2022-07-26T11:17:29;100591.01;;;21.69;56.46
50632;BME280;49583;45.590;-122.498;2022-07-26T11:20:04;100586.38;;;21.63;56.64
50632;BME280;49583;45.590;-122.498;2022-07-26T11:22:11;100593.75;;;21.61;56.71
50632;BME280;49583;45.590;-122.498;2022-07-26T11:24:41;100595.98;;;21.59;56.83
50632;BME280;49583;45.590;-122.498;2022-07-26T11:30:06;100599.98;;;21.51;57.20
50632;BME280;49583;45.590;-122.498;2022-07-26T11:32:54;100599.17;;;21.48;57.11
50632;BME280;49583;45.590;-122.498;2022-07-26T11:35:36;100604.63;;;21.46;57.47
50632;BME280;49583;45.590;-122.498;2022-07-26T11:38:07;100608.45;;;21.40;57.39
50632;BME280;49583;45.590;-122.498;2022-07-26T11:41:02;100609.91;;;21.38;57.51
50632;BME280;49583;45.590;-122.498;2022-07-26T11:42:56;100611.55;;;21.37;57.66
50632;BME280;49583;45.590;-122.498;2022-07-26T11:45:12;100612.23;;;21.36;57.78
50632;BME280;49583;45.590;-122.498;2022-07-26T11:48:00;100611.84;;;21.35;57.84
50632;BME280;49583;45.590;-122.498;2022-07-26T11:50:23;100612.23;;;21.36;57.94
50632;BME280;49583;45.590;-122.498;2022-07-26T11:52:43;100611.20;;;21.31;58.03
50632;BME280;49583;45.590;-122.498;2022-07-26T11:55:25;100615.10;;;21.28;58.10
50632;BME280;49583;45.590;-122.498;2022-07-26T11:57:55;100615.94;;;21.23;58.28
50632;BME280;49583;45.590;-122.498;2022-07-26T12:00:41;100620.60;;;21.17;58.33
50632;BME280;49583;45.590;-122.498;2022-07-26T12:02:58;100622.29;;;21.12;58.32
50632;BME280;49583;45.590;-122.498;2022-07-26T12:06:18;100621.37;;;21.07;58.42
50632;BME280;49583;45.590;-122.498;2022-07-26T12:09:01;100628.96;;;21.02;58.60
50632;BME280;49583;45.590;-122.498;2022-07-26T12:13:28;100627.59;;;20.95;58.79
50632;BME280;49583;45.590;-122.498;2022-07-26T12:16:33;100630.91;;;20.92;58.95
50632;BME280;49583;45.590;-122.498;2022-07-26T12:23:07;100639.02;;;20.83;59.11
50632;BME280;49583;45.590;-122.498;2022-07-26T12:25:27;100642.59;;;20.78;59.29
50632;BME280;49583;45.590;-122.498;2022-07-26T12:36:40;100642.25;;;20.64;59.63
50632;BME280;49583;45.590;-122.498;2022-07-26T12:42:30;100646.13;;;20.58;59.91
50632;BME280;49583;45.590;-122.498;2022-07-26T12:44:41;100643.54;;;20.55;60.09
50632;BME280;49583;45.590;-122.498;2022-07-26T12:50:01;100646.50;;;20.51;60.22
50632;BME280;49583;45.590;-122.498;2022-07-26T12:55:14;100650.80;;;20.46;60.45
50632;BME280;49583;45.590;-122.498;2022-07-26T12:57:28;100657.10;;;20.45;60.51
50632;BME280;49583;45.590;-122.498;2022-07-26T13:00:20;100655.58;;;20.42;60.60
50632;BME280;49583;45.590;-122.498;2022-07-26T13:02:50;100658.94;;;20.41;60.72
50632;BME280;49583;45.590;-122.498;2022-07-26T13:11:34;100662.23;;;20.38;60.96
50632;BME280;49583;45.590;-122.498;2022-07-26T13:14:01;100662.31;;;20.37;60.98
50632;BME280;49583;45.590;-122.498;2022-07-26T13:16:17;100663.76;;;20.36;61.17
50632;BME280;49583;45.590;-122.498;2022-07-26T13:18:37;100664.65;;;20.36;61.22
50632;BME280;49583;45.590;-122.498;2022-07-26T13:20:56;100664.99;;;20.35;61.30
50632;BME280;49583;45.590;-122.498;2022-07-26T13:26:44;100663.49;;;20.34;61.54
50632;BME280;49583;45.590;-122.498;2022-07-26T13:29:09;100666.70;;;20.37;61.74
50632;BME280;49583;45.590;-122.498;2022-07-26T13:31:42;100664.63;;;20.37;61.79
50632;BME280;49583;45.590;-122.498;2022-07-26T13:39:39;100667.49;;;20.37;62.02
50632;BME280;49583;45.590;-122.498;2022-07-26T13:42:32;100668.17;;;20.39;62.08
50632;BME280;49583;45.590;-122.498;2022-07-26T13:44:55;100671.80;;;20.41;62.12
50632;BME280;49583;45.590;-122.498;2022-07-26T13:47:05;100673.92;;;20.43;62.22
50632;BME280;49583;45.590;-122.498;2022-07-26T13:49:12;100674.67;;;20.44;62.20
50632;BME280;49583;45.590;-122.498;2022-07-26T13:51:19;100676.79;;;20.46;62.27
50632;BME280;49583;45.590;-122.498;2022-07-26T13:56:44;100681.09;;;20.50;62.45
50632;BME280;49583;45.590;-122.498;2022-07-26T13:59:19;100679.08;;;20.52;62.54
50632;BME280;49583;45.590;-122.498;2022-07-26T14:01:28;100680.92;;;20.54;62.54
50632;BME280;49583;45.590;-122.498;2022-07-26T14:04:18;100681.60;;;20.56;63.17
50632;BME280;49583;45.590;-122.498;2022-07-26T14:06:41;100688.02;;;20.57;63.82
50632;BME280;49583;45.590;-122.498;2022-07-26T14:08:55;100687.29;;;20.59;64.27
50632;BME280;49583;45.590;-122.498;2022-07-26T14:11:20;100688.97;;;20.61;64.60
50632;BME280;49583;45.590;-122.498;2022-07-26T14:17:06;100694.31;;;20.65;65.16
50632;BME280;49583;45.590;-122.498;2022-07-26T14:22:42;100694.14;;;20.68;65.57
50632;BME280;49583;45.590;-122.498;2022-07-26T14:25:23;100693.79;;;20.70;65.67
50632;BME280;49583;45.590;-122.498;2022-07-26T14:27:53;100698.85;;;20.72;65.87
50632;BME280;49583;45.590;-122.498;2022-07-26T14:30:31;100702.38;;;20.75;65.98
50632;BME280;49583;45.590;-122.498;2022-07-26T14:32:52;100700.23;;;20.78;66.02
50632;BME280;49583;45.590;-122.498;2022-07-26T14:37:55;100705.23;;;20.86;66.03
50632;BME280;49583;45.590;-122.498;2022-07-26T14:44:04;100712.23;;;21.02;66.03
50632;BME280;49583;45.590;-122.498;2022-07-26T14:46:25;100713.42;;;21.10;65.91
50632;BME280;49583;45.590;-122.498;2022-07-26T14:49:11;100715.65;;;21.19;65.94
50632;BME280;49583;45.590;-122.498;2022-07-26T14:54:47;100712.83;;;21.35;65.89
50632;BME280;49583;45.590;-122.498;2022-07-26T14:57:11;100715.11;;;21.43;65.90
50632;BME280;49583;45.590;-122.498;2022-07-26T14:59:48;100714.81;;;21.52;65.70
50632;BME280;49583;45.590;-122.498;2022-07-26T15:02:19;100712.73;;;21.60;65.63
50632;BME280;49583;45.590;-122.498;2022-07-26T15:09:58;100712.44;;;21.92;65.38
50632;BME280;49583;45.590;-122.498;2022-07-26T15:15:12;100719.77;;;22.15;64.95
50632;BME280;49583;45.590;-122.498;2022-07-26T15:17:38;100718.61;;;22.26;64.69
50632;BME280;49583;45.590;-122.498;2022-07-26T15:20:18;100717.84;;;22.37;64.51
50632;BME280;49583;45.590;-122.498;2022-07-26T15:22:44;100719.02;;;22.50;64.10
50632;BME280;49583;45.590;-122.498;2022-07-26T15:25:09;100722.08;;;22.60;63.72
50632;BME280;49583;45.590;-122.498;2022-07-26T15:30:04;100724.34;;;22.83;63.31
50632;BME280;49583;45.590;-122.498;2022-07-26T15:38:24;100732.66;;;23.16;62.24
50632;BME280;49583;45.590;-122.498;2022-07-26T15:41:08;100732.56;;;23.27;62.00
50632;BME280;49583;45.590;-122.498;2022-07-26T15:43:33;100738.95;;;23.40;61.48
50632;BME280;49583;45.590;-122.498;2022-07-26T15:46:25;100739.86;;;23.53;61.18
50632;BME280;49583;45.590;-122.498;2022-07-26T15:51:43;100738.27;;;23.88;60.64
50632;BME280;49583;45.590;-122.498;2022-07-26T15:54:17;100735.79;;;24.03;60.25
50632;BME280;49583;45.590;-122.498;2022-07-26T15:59:35;100734.50;;;24.37;59.46
50632;BME280;49583;45.590;-122.498;2022-07-26T16:04:54;100735.83;;;24.65;59.28
50632;BME280;49583;45.590;-122.498;2022-07-26T16:07:32;100737.36;;;24.80;59.21
50632;BME280;49583;45.590;-122.498;2022-07-26T16:10:04;100734.55;;;24.97;58.86
50632;BME280;49583;45.590;-122.498;2022-07-26T16:16:24;100746.81;;;25.28;57.78
50632;BME280;49583;45.590;-122.498;2022-07-26T16:19:08;100744.73;;;25.36;57.39
50632;BME280;49583;45.590;-122.498;2022-07-26T16:21:24;100741.13;;;25.42;56.67
50632;BME280;49583;45.590;-122.498;2022-07-26T16:27:08;100755.65;;;25.56;55.89
50632;BME280;49583;45.590;-122.498;2022-07-26T16:29:48;100756.55;;;25.64;55.51
50632;BME280;49583;45.590;-122.498;2022-07-26T16:32:40;100756.65;;;25.80;55.47
50632;BME280;49583;45.590;-122.498;2022-07-26T16:35:19;100759.73;;;26.02;54.96
50632;BME280;49583;45.590;-122.498;2022-07-26T16:38:00;100758.64;;;26.15;54.73
50632;BME280;49583;45.590;-122.498;2022-07-26T16:40:45;100763.39;;;26.33;54.27
50632;BME280;49583;45.590;-122.498;2022-07-26T16:46:11;100762.02;;;26.70;53.37
50632;BME280;49583;45.590;-122.498;2022-07-26T16:54:20;100756.48;;;27.20;51.79
50632;BME280;49583;45.590;-122.498;2022-07-26T16:56:45;100752.98;;;27.33;51.33
50632;BME280;49583;45.590;-122.498;2022-07-26T17:02:51;100753.20;;;27.62;50.71
50632;BME280;49583;45.590;-122.498;2022-07-26T17:05:35;100752.65;;;27.79;50.67
50632;BME280;49583;45.590;-122.498;2022-07-26T17:08:23;100755.41;;;28.02;49.92
50632;BME280;49583;45.590;-122.498;2022-07-26T17:10:36;100751.48;;;28.13;49.43
50632;BME280;49583;45.590;-122.498;2022-07-26T17:21:34;100749.20;;;28.68;47.76
50632;BME280;49583;45.590;-122.498;2022-07-26T17:24:35;100751.13;;;28.77;47.67
50632;BME280;49583;45.590;-122.498;2022-07-26T17:29:49;100747.84;;;29.03;47.69
50632;BME280;49583;45.590;-122.498;2022-07-26T17:32:30;100756.21;;;29.25;47.72
50632;BME280;49583;45.590;-122.498;2022-07-26T17:34:56;100753.30;;;29.38;47.09
50632;BME280;49583;45.590;-122.498;2022-07-26T17:40:38;100748.06;;;29.57;46.97
50632;BME280;49583;45.590;-122.498;2022-07-26T17:43:13;100747.61;;;29.78;47.03
50632;BME280;49583;45.590;-122.498;2022-07-26T17:45:59;100743.83;;;29.99;46.83
50632;BME280;49583;45.590;-122.498;2022-07-26T17:57:43;100742.58;;;30.58;44.35
50632;BME280;49583;45.590;-122.498;2022-07-26T18:00:18;100741.32;;;30.61;44.06
50632;BME280;49583;45.590;-122.498;2022-07-26T18:02:49;100747.52;;;30.65;43.67
50632;BME280;49583;45.590;-122.498;2022-07-26T18:05:24;100745.23;;;30.62;43.15
50632;BME280;49583;45.590;-122.498;2022-07-26T18:08:07;100749.60;;;30.67;42.93
50632;BME280;49583;45.590;-122.498;2022-07-26T18:14:13;100743.29;;;30.92;42.40
50632;BME280;49583;45.590;-122.498;2022-07-26T18:17:11;100743.65;;;31.02;42.03
50632;BME280;49583;45.590;-122.498;2022-07-26T18:22:18;100739.87;;;31.29;41.48
50632;BME280;49583;45.590;-122.498;2022-07-26T18:28:03;100740.52;;;31.72;41.10
50632;BME280;49583;45.590;-122.498;2022-07-26T18:30:31;100732.61;;;31.91;40.62